Flight Information

DEPARTURE
HAWTHORNE, CA
Elevation:
65
Runways:
7/25 - 4884x100 - ASPH-G
ATIS:
118.4 310-675-7945
Ground:
125.1
Tower:
121.1
DESTINATION
,
Elevation:
TPA:
1000 (est.)


6791.4 NM73° True-14° Var59° HDG

Flight Plan:
(click to file on line)

1. Type
2. Aircraft Identification
3. Aircraft Type / Special Equipment
4. True Airspeed
kts
5. Departure Airport
(ICAO code)
6. Arriving Airport
(ICAO code)
7. Cruising Altitude
ft
8. Alternate Airport
(ICAO code)
9. Route of Flight
10. Remarks


00:00:00 Departure ATIS: Destination ATIS:

Clearance Limit:
Route:
Altitude: Expect in minutes
Frequency:
Transponder: (7500 Hijack / 7600 Lost Comms / 7700 Emergency)


KHHR 261353Z 00000KT 4SM BR CLR 18/16 A2997 RMK AO2 SLP149 T01780156
Time: 2022-06-26T13:53:00Z
1656253561
Winds: calm
Visibility: 4.0 sm
Clouds (AGL): CLR
Temperature: 17.8 C
Dew Point: 15.6 C
Pressure: 29.970472 in Hgbr


Notes:

Data extracted from FAA Digital Chart Supplement. Effective: 0901Z Thursday, 27 JAN 2022 to 0900z Thursday, 24 MAR 2022
Current ATIS data is provided courtisy of PilotEdge.